GLO1042 SBSP-SBRJ
Flight info
| Callsign | GLO1042 |
|---|---|
| Flight time | 0h 38m |
| Altitude | 27000 |
| Route | NIBRU UZ171 KEVUN |
| Aircraft | B738/M-SDE2E3FGHIRWXY/LB1 |
Departure
| Time | 2026-05-03 22:21 |
|---|---|
| Airport | Congonhas–Deputado Freitas Nobre Airport (SBSP) |
Arrival
| Time | 2026-05-03 23:00 |
|---|---|
| Airport | Santos Dumont Airport (SBRJ) |
| Time | Latitude | Longitude | Altitude | Speed | Heading |
|---|---|---|---|---|---|
| 2026-05-03 21:53 | -23.62509 | -46.65963 | 2599 ft | 0 kts | 237° |
| 2026-05-03 22:09 | -23.62506 | -46.65957 | 2599 ft | 3 kts | 237° |
| 2026-05-03 22:10 | -23.62504 | -46.65925 | 2600 ft | 0 kts | 328° |
| 2026-05-03 22:13 | -23.62503 | -46.65925 | 2600 ft | 0 kts | 328° |
| 2026-05-03 22:15 | -23.62502 | -46.65926 | 2600 ft | 0 kts | 328° |
| 2026-05-03 22:16 | -23.62501 | -46.65927 | 2600 ft | 0 kts | 328° |
| 2026-05-03 22:18 | -23.62477 | -46.65942 | 2599 ft | 9 kts | 328° |
| 2026-05-03 22:18 | -23.62414 | -46.65980 | 2599 ft | 11 kts | 334° |
| 2026-05-03 22:18 | -23.62355 | -46.66018 | 2599 ft | 9 kts | 330° |
| 2026-05-03 22:18 | -23.62298 | -46.66038 | 2599 ft | 10 kts | 352° |
| 2026-05-03 22:19 | -23.62209 | -46.66062 | 2587 ft | 14 kts | 329° |
| 2026-05-03 22:19 | -23.62126 | -46.66120 | 2591 ft | 13 kts | 327° |
| 2026-05-03 22:19 | -23.62089 | -46.66138 | 2596 ft | 6 kts | 343° |
| 2026-05-03 22:19 | -23.62053 | -46.66128 | 2591 ft | 8 kts | 45° |
| 2026-05-03 22:20 | -23.62066 | -46.66064 | 2590 ft | 10 kts | 140° |
| 2026-05-03 22:20 | -23.62082 | -46.66052 | 2595 ft | 0 kts | 147° |
| 2026-05-03 22:20 | -23.62083 | -46.66052 | 2595 ft | 4 kts | 147° |
| 2026-05-03 22:20 | -23.62335 | -46.65876 | 2600 ft | 82 kts | 147° |
| 2026-05-03 22:21 | -23.63023 | -46.65402 | 2619 ft | 148 kts | 148° |
| 2026-05-03 22:21 | -23.63975 | -46.64751 | 3233 ft | 165 kts | 146° |
| 2026-05-03 22:21 | -23.64863 | -46.63940 | 4159 ft | 170 kts | 122° |
| 2026-05-03 22:21 | -23.65399 | -46.62727 | 4690 ft | 195 kts | 115° |
| 2026-05-03 22:22 | -23.66044 | -46.61336 | 4882 ft | 219 kts | 118° |
| 2026-05-03 22:22 | -23.66813 | -46.59808 | 5162 ft | 237 kts | 119° |
| 2026-05-03 22:22 | -23.67638 | -46.58163 | 5475 ft | 258 kts | 119° |
| 2026-05-03 22:22 | -23.68511 | -46.56417 | 6208 ft | 263 kts | 118° |
| 2026-05-03 22:23 | -23.69408 | -46.54622 | 6874 ft | 273 kts | 118° |
| 2026-05-03 22:23 | -23.70333 | -46.52773 | 7509 ft | 282 kts | 118° |
| 2026-05-03 22:23 | -23.71285 | -46.50873 | 8183 ft | 289 kts | 118° |
| 2026-05-03 22:23 | -23.71926 | -46.48788 | 8833 ft | 296 kts | 94° |
| 2026-05-03 22:24 | -23.71768 | -46.46532 | 9506 ft | 300 kts | 81° |
| 2026-05-03 22:24 | -23.71443 | -46.44276 | 10289 ft | 303 kts | 80° |
| 2026-05-03 22:24 | -23.71095 | -46.41966 | 10784 ft | 316 kts | 80° |
| 2026-05-03 22:24 | -23.70734 | -46.39564 | 11326 ft | 324 kts | 80° |
| 2026-05-03 22:25 | -23.70374 | -46.37124 | 12009 ft | 328 kts | 81° |
| 2026-05-03 22:25 | -23.70014 | -46.34651 | 12654 ft | 333 kts | 81° |
| 2026-05-03 22:25 | -23.69651 | -46.32132 | 13312 ft | 337 kts | 81° |
| 2026-05-03 22:25 | -23.69289 | -46.29608 | 14093 ft | 338 kts | 82° |
| 2026-05-03 22:26 | -23.68924 | -46.27051 | 14617 ft | 344 kts | 82° |
| 2026-05-03 22:26 | -23.68551 | -46.24444 | 15163 ft | 350 kts | 82° |
| 2026-05-03 22:26 | -23.68172 | -46.21795 | 15730 ft | 355 kts | 82° |
| 2026-05-03 22:26 | -23.67792 | -46.19144 | 16274 ft | 361 kts | 82° |
| 2026-05-03 22:27 | -23.67401 | -46.16417 | 16828 ft | 366 kts | 82° |
| 2026-05-03 22:27 | -23.67004 | -46.13655 | 17354 ft | 372 kts | 82° |
| 2026-05-03 22:27 | -23.66601 | -46.10850 | 17893 ft | 377 kts | 82° |
| 2026-05-03 22:27 | -23.66192 | -46.08000 | 18432 ft | 382 kts | 82° |
| 2026-05-03 22:28 | -23.65777 | -46.05107 | 18905 ft | 387 kts | 82° |
| 2026-05-03 22:28 | -23.65358 | -46.02187 | 19371 ft | 392 kts | 82° |
| 2026-05-03 22:28 | -23.64934 | -45.99240 | 19868 ft | 396 kts | 82° |
| 2026-05-03 22:28 | -23.64504 | -45.96255 | 20331 ft | 400 kts | 81° |
| 2026-05-03 22:29 | -23.64068 | -45.93239 | 20828 ft | 404 kts | 82° |
| 2026-05-03 22:29 | -23.63628 | -45.90194 | 21315 ft | 408 kts | 82° |
| 2026-05-03 22:29 | -23.63183 | -45.87116 | 21779 ft | 413 kts | 82° |
| 2026-05-03 22:29 | -23.62738 | -45.84041 | 22224 ft | 418 kts | 81° |
| 2026-05-03 22:30 | -23.62281 | -45.80898 | 22688 ft | 422 kts | 81° |
| 2026-05-03 22:30 | -23.61820 | -45.77719 | 23137 ft | 427 kts | 81° |
| 2026-05-03 22:30 | -23.61353 | -45.74512 | 23575 ft | 431 kts | 81° |
| 2026-05-03 22:30 | -23.60881 | -45.71270 | 23982 ft | 435 kts | 81° |
| 2026-05-03 22:31 | -23.60403 | -45.68000 | 24364 ft | 438 kts | 81° |
| 2026-05-03 22:31 | -23.59923 | -45.64711 | 24757 ft | 441 kts | 81° |
| 2026-05-03 22:31 | -23.59437 | -45.61397 | 25138 ft | 444 kts | 81° |
| 2026-05-03 22:31 | -23.58948 | -45.58060 | 25501 ft | 447 kts | 80° |
| 2026-05-03 22:32 | -23.58454 | -45.54698 | 25882 ft | 450 kts | 80° |
| 2026-05-03 22:32 | -23.57958 | -45.51321 | 26265 ft | 453 kts | 80° |
| 2026-05-03 22:32 | -23.57458 | -45.47923 | 26626 ft | 456 kts | 80° |
| 2026-05-03 22:32 | -23.56893 | -45.44505 | 26976 ft | 459 kts | 76° |
| 2026-05-03 22:33 | -23.56201 | -45.41100 | 27250 ft | 463 kts | 75° |
| 2026-05-03 22:33 | -23.55442 | -45.37647 | 27231 ft | 473 kts | 74° |
| 2026-05-03 22:33 | -23.54666 | -45.34175 | 27243 ft | 482 kts | 75° |
| 2026-05-03 22:33 | -23.53873 | -45.30597 | 27252 ft | 489 kts | 75° |
| 2026-05-03 22:34 | -23.53083 | -45.26959 | 27269 ft | 497 kts | 75° |
| 2026-05-03 22:34 | -23.52291 | -45.23269 | 27244 ft | 504 kts | 75° |
| 2026-05-03 22:34 | -23.51497 | -45.19538 | 27233 ft | 502 kts | 75° |
| 2026-05-03 22:34 | -23.50714 | -45.15857 | 26894 ft | 496 kts | 75° |
| 2026-05-03 22:35 | -23.49938 | -45.12212 | 26469 ft | 491 kts | 76° |
| 2026-05-03 22:35 | -23.49173 | -45.08607 | 26041 ft | 487 kts | 76° |
| 2026-05-03 22:35 | -23.48407 | -45.05014 | 25519 ft | 485 kts | 76° |
| 2026-05-03 22:35 | -23.47645 | -45.01451 | 25058 ft | 482 kts | 76° |
| 2026-05-03 22:36 | -23.46912 | -44.98031 | 24587 ft | 480 kts | 76° |
| 2026-05-03 22:36 | -23.46155 | -44.94506 | 24120 ft | 477 kts | 76° |
| 2026-05-03 22:36 | -23.45389 | -44.91008 | 23656 ft | 473 kts | 76° |
| 2026-05-03 22:36 | -23.44618 | -44.87538 | 23138 ft | 470 kts | 76° |
| 2026-05-03 22:37 | -23.43849 | -44.84094 | 22643 ft | 466 kts | 76° |
| 2026-05-03 22:37 | -23.43085 | -44.80680 | 22174 ft | 462 kts | 76° |
| 2026-05-03 22:37 | -23.42330 | -44.77296 | 21706 ft | 458 kts | 76° |
| 2026-05-03 22:37 | -23.41579 | -44.73932 | 21239 ft | 454 kts | 76° |
| 2026-05-03 22:38 | -23.40837 | -44.70606 | 20777 ft | 450 kts | 76° |
| 2026-05-03 22:38 | -23.40100 | -44.67306 | 20317 ft | 447 kts | 76° |
| 2026-05-03 22:38 | -23.39368 | -44.64029 | 19865 ft | 443 kts | 76° |
| 2026-05-03 22:38 | -23.38652 | -44.60826 | 19421 ft | 440 kts | 76° |
| 2026-05-03 22:39 | -23.37931 | -44.57603 | 18950 ft | 436 kts | 76° |
| 2026-05-03 22:39 | -23.37221 | -44.54435 | 18504 ft | 424 kts | 76° |
| 2026-05-03 22:39 | -23.36530 | -44.51351 | 17990 ft | 413 kts | 76° |
| 2026-05-03 22:39 | -23.35860 | -44.48365 | 17542 ft | 401 kts | 76° |
| 2026-05-03 22:40 | -23.35205 | -44.45451 | 17116 ft | 390 kts | 76° |
| 2026-05-03 22:40 | -23.34565 | -44.42622 | 16711 ft | 380 kts | 75° |
| 2026-05-03 22:40 | -23.33712 | -44.39962 | 16430 ft | 366 kts | 66° |
| 2026-05-03 22:40 | -23.32658 | -44.37475 | 16050 ft | 357 kts | 63° |
| 2026-05-03 22:41 | -23.31558 | -44.35065 | 15698 ft | 356 kts | 62° |
| 2026-05-03 22:41 | -23.30450 | -44.32640 | 15326 ft | 359 kts | 63° |
| 2026-05-03 22:41 | -23.29339 | -44.30165 | 14930 ft | 368 kts | 63° |
| 2026-05-03 22:41 | -23.28227 | -44.27643 | 14510 ft | 370 kts | 64° |
| 2026-05-03 22:42 | -23.27126 | -44.25112 | 14092 ft | 369 kts | 64° |
| 2026-05-03 22:42 | -23.26036 | -44.22588 | 13642 ft | 368 kts | 65° |
| 2026-05-03 22:42 | -23.24954 | -44.20076 | 13205 ft | 365 kts | 65° |
| 2026-05-03 22:42 | -23.23893 | -44.17612 | 12785 ft | 363 kts | 65° |
| 2026-05-03 22:43 | -23.22827 | -44.15136 | 12373 ft | 360 kts | 65° |
| 2026-05-03 22:43 | -23.21769 | -44.12683 | 11971 ft | 357 kts | 64° |
| 2026-05-03 22:43 | -23.20716 | -44.10241 | 11561 ft | 355 kts | 64° |
| 2026-05-03 22:43 | -23.19667 | -44.07818 | 11190 ft | 352 kts | 64° |
| 2026-05-03 22:44 | -23.18600 | -44.05469 | 11017 ft | 342 kts | 63° |
| 2026-05-03 22:44 | -23.17542 | -44.03185 | 10825 ft | 334 kts | 63° |
| 2026-05-03 22:44 | -23.16508 | -44.00953 | 10641 ft | 327 kts | 63° |
| 2026-05-03 22:44 | -23.15539 | -43.98838 | 10464 ft | 316 kts | 63° |
| 2026-05-03 22:45 | -23.14622 | -43.96728 | 10294 ft | 302 kts | 64° |
| 2026-05-03 22:45 | -23.13761 | -43.94701 | 10129 ft | 289 kts | 65° |
| 2026-05-03 22:45 | -23.12949 | -43.92782 | 9982 ft | 280 kts | 64° |
| 2026-05-03 22:45 | -23.12137 | -43.90871 | 9827 ft | 278 kts | 64° |
| 2026-05-03 22:46 | -23.11318 | -43.88950 | 9702 ft | 283 kts | 64° |
| 2026-05-03 22:46 | -23.10482 | -43.86993 | 9549 ft | 287 kts | 64° |
| 2026-05-03 22:46 | -23.09641 | -43.85025 | 9386 ft | 287 kts | 64° |
| 2026-05-03 22:46 | -23.08800 | -43.83058 | 9229 ft | 287 kts | 64° |
| 2026-05-03 22:47 | -23.07959 | -43.81093 | 9068 ft | 287 kts | 64° |
| 2026-05-03 22:47 | -23.07401 | -43.79791 | 8968 ft | 287 kts | 64° |
| 2026-05-03 22:47 | -23.06560 | -43.77831 | 8826 ft | 286 kts | 64° |
| 2026-05-03 22:47 | -23.05437 | -43.75208 | 8630 ft | 287 kts | 64° |
| 2026-05-03 22:48 | -23.04878 | -43.73903 | 8521 ft | 287 kts | 64° |
| 2026-05-03 22:48 | -23.04033 | -43.71938 | 8368 ft | 286 kts | 64° |
| 2026-05-03 22:48 | -23.03195 | -43.69989 | 8184 ft | 283 kts | 64° |
| 2026-05-03 22:48 | -23.02351 | -43.68048 | 7929 ft | 284 kts | 64° |
| 2026-05-03 22:49 | -23.01506 | -43.66118 | 7665 ft | 282 kts | 64° |
| 2026-05-03 22:49 | -23.00657 | -43.64181 | 7281 ft | 285 kts | 64° |
| 2026-05-03 22:49 | -22.99807 | -43.62242 | 7019 ft | 283 kts | 65° |
| 2026-05-03 22:49 | -22.98971 | -43.60338 | 6860 ft | 278 kts | 65° |
| 2026-05-03 22:50 | -22.98152 | -43.58477 | 6733 ft | 267 kts | 65° |
| 2026-05-03 22:50 | -22.97379 | -43.56720 | 6800 ft | 243 kts | 66° |
| 2026-05-03 22:50 | -22.96686 | -43.55146 | 6805 ft | 225 kts | 66° |
| 2026-05-03 22:50 | -22.96041 | -43.53685 | 6722 ft | 209 kts | 66° |
| 2026-05-03 22:51 | -22.95432 | -43.52301 | 6499 ft | 201 kts | 66° |
| 2026-05-03 22:51 | -22.94814 | -43.50901 | 6077 ft | 204 kts | 66° |
| 2026-05-03 22:51 | -22.94332 | -43.49475 | 5827 ft | 196 kts | 72° |
| 2026-05-03 22:51 | -22.93718 | -43.48163 | 5577 ft | 193 kts | 63° |
| 2026-05-03 22:52 | -22.93114 | -43.46878 | 5357 ft | 188 kts | 66° |
| 2026-05-03 22:52 | -22.92562 | -43.45595 | 5158 ft | 190 kts | 67° |
| 2026-05-03 22:52 | -22.92092 | -43.44258 | 4906 ft | 189 kts | 67° |
| 2026-05-03 22:52 | -22.91499 | -43.43004 | 4766 ft | 185 kts | 66° |
| 2026-05-03 22:53 | -22.90940 | -43.41732 | 4579 ft | 190 kts | 68° |
| 2026-05-03 22:53 | -22.90380 | -43.40419 | 4447 ft | 193 kts | 68° |
| 2026-05-03 22:53 | -22.89824 | -43.39116 | 4253 ft | 191 kts | 69° |
| 2026-05-03 22:53 | -22.89279 | -43.37826 | 4071 ft | 189 kts | 69° |
| 2026-05-03 22:54 | -22.88731 | -43.36537 | 3896 ft | 183 kts | 69° |
| 2026-05-03 22:54 | -22.88253 | -43.35236 | 3765 ft | 188 kts | 84° |
| 2026-05-03 22:54 | -22.88295 | -43.33845 | 3619 ft | 184 kts | 98° |
| 2026-05-03 22:54 | -22.88364 | -43.32461 | 3428 ft | 183 kts | 96° |
| 2026-05-03 22:55 | -22.88428 | -43.31091 | 3246 ft | 182 kts | 95° |
| 2026-05-03 22:55 | -22.88466 | -43.29734 | 3092 ft | 178 kts | 97° |
| 2026-05-03 22:55 | -22.88526 | -43.28385 | 2962 ft | 181 kts | 95° |
| 2026-05-03 22:55 | -22.88566 | -43.27034 | 2794 ft | 176 kts | 95° |
| 2026-05-03 22:56 | -22.88743 | -43.25769 | 2587 ft | 160 kts | 116° |
| 2026-05-03 22:56 | -22.89173 | -43.24720 | 2413 ft | 150 kts | 116° |
| 2026-05-03 22:56 | -22.89565 | -43.23685 | 2199 ft | 146 kts | 115° |
| 2026-05-03 22:56 | -22.89947 | -43.22666 | 2017 ft | 146 kts | 115° |
| 2026-05-03 22:57 | -22.90337 | -43.21640 | 1839 ft | 147 kts | 117° |
| 2026-05-03 22:57 | -22.90849 | -43.20685 | 1657 ft | 145 kts | 131° |
| 2026-05-03 22:57 | -22.91590 | -43.19961 | 1503 ft | 143 kts | 149° |
| 2026-05-03 22:57 | -22.92501 | -43.19518 | 1348 ft | 145 kts | 165° |
| 2026-05-03 22:58 | -22.93478 | -43.19367 | 1150 ft | 138 kts | 176° |
| 2026-05-03 22:58 | -22.94326 | -43.18947 | 804 ft | 141 kts | 135° |
| 2026-05-03 22:58 | -22.94722 | -43.17987 | 506 ft | 144 kts | 99° |
| 2026-05-03 22:58 | -22.94549 | -43.16954 | 294 ft | 140 kts | 49° |
| 2026-05-03 22:59 | -22.93799 | -43.16355 | 234 ft | 124 kts | 24° |
| 2026-05-03 22:59 | -22.92996 | -43.16155 | 191 ft | 115 kts | 359° |
| 2026-05-03 22:59 | -22.92150 | -43.16220 | 152 ft | 130 kts | 355° |
| 2026-05-03 22:59 | -22.91278 | -43.16273 | 28 ft | 118 kts | 355° |
| 2026-05-03 23:00 | -22.90809 | -43.16300 | 27 ft | 21 kts | 357° |
| 2026-05-03 23:00 | -22.90651 | -43.16309 | 27 ft | 26 kts | 357° |
| 2026-05-03 23:00 | -22.90513 | -43.16324 | 27 ft | 15 kts | 333° |
| 2026-05-03 23:00 | -22.90494 | -43.16424 | 27 ft | 14 kts | 266° |
| 2026-05-03 23:01 | -22.90500 | -43.16526 | 29 ft | 7 kts | 265° |
| 2026-05-03 23:01 | -22.90527 | -43.16553 | 29 ft | 6 kts | 200° |
| 2026-05-03 23:01 | -22.90580 | -43.16553 | 29 ft | 10 kts | 176° |
| 2026-05-03 23:01 | -22.90665 | -43.16548 | 29 ft | 14 kts | 176° |
| 2026-05-03 23:02 | -22.90753 | -43.16543 | 29 ft | 6 kts | 176° |
| 2026-05-03 23:02 | -22.90797 | -43.16542 | 29 ft | 7 kts | 186° |
| 2026-05-03 23:02 | -22.90862 | -43.16550 | 29 ft | 11 kts | 177° |
| 2026-05-03 23:02 | -22.90939 | -43.16544 | 29 ft | 11 kts | 176° |
| 2026-05-03 23:03 | -22.91014 | -43.16539 | 29 ft | 11 kts | 176° |
| 2026-05-03 23:03 | -22.91085 | -43.16530 | 29 ft | 9 kts | 169° |
| 2026-05-03 23:03 | -22.91144 | -43.16517 | 29 ft | 9 kts | 173° |
| 2026-05-03 23:03 | -22.91194 | -43.16516 | 29 ft | 6 kts | 205° |
| 2026-05-03 23:04 | -22.91206 | -43.16554 | 29 ft | 5 kts | 264° |
| 2026-05-03 23:04 | -22.91207 | -43.16572 | 29 ft | 2 kts | 266° |
| 2026-05-03 23:04 | -22.91207 | -43.16576 | 29 ft | 0 kts | 266° |